Time;durP1;ratioP1;P1;durP2;ratioP2;P2;SDS_P1;SDS_P2;PMS_P1;PMS_P2;Temp;Humidity;BMP_temperature;BMP_pressure;BME280_temperature;BME280_humidity;BME280_pressure;Samples;Min_cycle;Max_cycle;Signal;HPM_P1;HPM_P2
2022/03/06 00:01:26;;;;;;;45.03;20.38;;;;;;;-141.50;100.00;63355.56;4975782;28;20067;-76
2022/03/06 00:03:53;;;;;;;40.53;18.98;;;;;;;-141.50;100.00;63355.56;4974970;28;20082;-76
2022/03/06 00:06:20;;;;;;;43.63;20.08;;;;;;;-141.50;100.00;63355.56;4973574;28;20047;-75
2022/03/06 00:08:47;;;;;;;43.28;20.25;;;;;;;-141.50;100.00;63355.56;4974515;28;20047;-76
2022/03/06 00:11:13;;;;;;;49.75;21.80;;;;;;;-141.50;100.00;63355.56;4972059;28;20118;-77
2022/03/06 00:13:40;;;;;;;47.53;20.38;;;;;;;-141.50;100.00;63355.56;4973162;28;20051;-77
2022/03/06 00:16:06;;;;;;;45.47;20.83;;;;;;;-141.50;100.00;63355.56;4968629;28;20066;-75
2022/03/06 00:18:35;;;;;;;41.72;19.27;;;;;;;-141.50;100.00;63355.56;4967559;28;20102;-77
2022/03/06 00:21:03;;;;;;;40.35;18.77;;;;;;;-141.50;100.00;63355.56;4968609;28;20745;-76
2022/03/06 00:23:29;;;;;;;35.88;18.55;;;;;;;-141.50;100.00;63355.56;4968008;28;20082;-76
2022/03/06 00:25:56;;;;;;;38.85;19.50;;;;;;;-141.50;100.00;63355.56;4968105;28;20058;-76
2022/03/06 00:28:22;;;;;;;39.80;20.02;;;;;;;-141.50;100.00;63355.56;4966966;28;20430;-76
2022/03/06 00:30:50;;;;;;;45.97;19.52;;;;;;;-141.50;100.00;63355.56;4966526;28;20059;-76
2022/03/06 00:33:16;;;;;;;42.58;19.30;;;;;;;-141.50;100.00;63355.56;4966320;28;20085;-76
2022/03/06 00:35:43;;;;;;;37.92;19.33;;;;;;;-141.50;100.00;63355.56;4968034;28;20051;-76
2022/03/06 00:38:10;;;;;;;41.45;19.55;;;;;;;-141.50;100.00;63355.56;4981642;28;20054;-76
2022/03/06 00:40:36;;;;;;;43.47;19.35;;;;;;;-141.50;100.00;63355.56;4967473;28;20047;-77
2022/03/06 00:43:03;;;;;;;41.28;19.83;;;;;;;-141.50;100.00;63355.56;4967794;28;20517;-76
2022/03/06 00:45:30;;;;;;;54.38;23.55;;;;;;;-141.50;100.00;63355.56;4969152;28;20141;-76
2022/03/06 00:47:57;;;;;;;45.63;21.67;;;;;;;-141.50;100.00;63355.56;4972008;28;20081;-75
2022/03/06 00:50:24;;;;;;;42.67;20.55;;;;;;;-141.50;100.00;63355.56;4971878;28;20108;-76
2022/03/06 00:52:52;;;;;;;40.38;19.77;;;;;;;-141.50;100.00;63355.56;4972143;28;20055;-77
2022/03/06 00:55:19;;;;;;;42.60;19.25;;;;;;;-141.50;100.00;63355.56;4971140;28;20066;-76
2022/03/06 00:57:48;;;;;;;43.67;20.00;;;;;;;-141.50;100.00;63355.56;4971188;28;20094;-76
2022/03/06 01:00:15;;;;;;;44.50;18.33;;;;;;;-141.50;100.00;63355.56;4971680;28;20083;-76
2022/03/06 01:02:41;;;;;;;40.60;19.90;;;;;;;-141.50;100.00;63355.56;4972168;28;20059;-76
2022/03/06 01:05:08;;;;;;;45.72;20.40;;;;;;;-141.50;100.00;63355.56;4971899;28;20050;-75
2022/03/06 01:07:35;;;;;;;50.17;21.45;;;;;;;-141.50;100.00;63355.56;4971285;28;20055;-77
2022/03/06 01:10:02;;;;;;;49.70;21.08;;;;;;;-141.50;100.00;63355.56;4969788;28;20075;-76
2022/03/06 01:12:29;;;;;;;56.35;21.67;;;;;;;-141.50;100.00;63355.56;4971024;28;20051;-77
2022/03/06 01:14:56;;;;;;;55.50;23.00;;;;;;;-141.50;100.00;63355.56;4970974;28;20051;-75
2022/03/06 01:17:22;;;;;;;49.55;20.75;;;;;;;-141.50;100.00;63355.56;4970708;28;20059;-77
2022/03/06 01:19:49;;;;;;;52.17;22.17;;;;;;;-141.50;100.00;63355.56;4971163;28;20050;-76
2022/03/06 01:22:16;;;;;;;47.70;20.35;;;;;;;-141.50;100.00;63355.56;4970029;28;20046;-77
2022/03/06 01:24:43;;;;;;;42.53;19.58;;;;;;;-141.50;100.00;63355.56;4970442;28;20070;-77
2022/03/06 01:27:09;;;;;;;48.05;21.02;;;;;;;-141.50;100.00;63355.56;4970801;28;20050;-77
2022/03/06 01:29:36;;;;;;;45.55;20.92;;;;;;;-141.50;100.00;63355.56;4966916;28;20047;-76
2022/03/06 01:32:02;;;;;;;47.28;20.65;;;;;;;-141.50;100.00;63355.56;4956087;28;20058;-77
2022/03/06 01:34:29;;;;;;;44.38;20.02;;;;;;;-141.50;100.00;63355.56;4964094;28;20082;-77
2022/03/06 01:36:55;;;;;;;43.55;20.63;;;;;;;-141.50;100.00;63355.56;4960521;28;20111;-75
2022/03/06 01:39:22;;;;;;;40.17;20.95;;;;;;;-141.50;100.00;63355.56;4958264;28;20281;-77
2022/03/06 01:41:48;;;;;;;42.65;20.25;;;;;;;-141.50;100.00;63355.56;4969905;28;20051;-77
2022/03/06 01:44:16;;;;;;;41.85;20.33;;;;;;;-141.50;100.00;63355.56;4972081;28;20051;-76
2022/03/06 01:46:45;;;;;;;43.67;20.55;;;;;;;-141.50;100.00;63355.56;4973148;28;20482;-73
2022/03/06 01:49:13;;;;;;;40.88;20.27;;;;;;;-141.50;100.00;63355.56;4973626;28;20499;-75
2022/03/06 01:51:40;;;;;;;37.65;20.52;;;;;;;-141.50;100.00;63355.56;4972215;28;20117;-76
2022/03/06 01:54:09;;;;;;;46.58;21.30;;;;;;;-141.50;100.00;63355.56;4972604;28;20050;-76
2022/03/06 01:56:35;;;;;;;45.47;21.48;;;;;;;-141.50;100.00;63355.56;4988233;28;20086;-76
2022/03/06 01:59:04;;;;;;;42.75;20.80;;;;;;;-141.50;100.00;63355.56;4972958;28;20047;-76
2022/03/06 02:01:31;;;;;;;47.97;21.95;;;;;;;-141.50;100.00;63355.56;4973828;28;20403;-76
2022/03/06 02:03:58;;;;;;;46.97;21.30;;;;;;;-141.50;100.00;63355.56;4971397;28;20412;-76
2022/03/06 02:06:26;;;;;;;43.25;20.90;;;;;;;-141.50;100.00;63355.56;4971748;28;20141;-76
2022/03/06 02:08:53;;;;;;;42.75;20.23;;;;;;;-141.50;100.00;63355.56;4971645;28;20055;-74
2022/03/06 02:11:22;;;;;;;42.38;20.45;;;;;;;-141.50;100.00;63355.56;4972647;28;20055;-76
2022/03/06 02:13:49;;;;;;;36.28;19.35;;;;;;;-141.50;100.00;63355.56;4972825;28;20082;-75
2022/03/06 02:16:16;;;;;;;41.00;19.83;;;;;;;-141.50;100.00;63355.56;4972869;28;20046;-76
2022/03/06 02:18:42;;;;;;;33.10;17.30;;;;;;;-141.50;100.00;63355.56;4970705;28;20604;-77
2022/03/06 02:21:13;;;;;;;40.63;19.05;;;;;;;-141.50;100.00;63355.56;4970937;28;20074;-76
2022/03/06 02:23:40;;;;;;;38.75;18.88;;;;;;;-141.50;100.00;63355.56;4972756;28;20046;-77
2022/03/06 02:26:08;;;;;;;38.15;18.38;;;;;;;-141.50;100.00;63355.56;4976300;28;20058;-76
2022/03/06 02:28:35;;;;;;;38.00;18.60;;;;;;;-141.50;100.00;63355.56;4973794;28;20055;-77
2022/03/06 02:31:02;;;;;;;41.88;19.38;;;;;;;-141.50;100.00;63355.56;4972888;28;20129;-76
2022/03/06 02:33:29;;;;;;;44.20;18.80;;;;;;;-141.50;100.00;63355.56;4974122;28;20050;-76
2022/03/06 02:35:55;;;;;;;36.83;18.65;;;;;;;-141.50;100.00;63355.56;4976698;28;20142;-76
2022/03/06 02:38:22;;;;;;;37.80;18.70;;;;;;;-141.50;100.00;63355.56;4988754;28;20121;-76
2022/03/06 02:40:52;;;;;;;38.83;18.20;;;;;;;-141.50;100.00;63355.56;4995641;28;20038;-76
2022/03/06 02:43:20;;;;;;;35.40;17.75;;;;;;;-141.50;100.00;63355.56;4987378;28;20551;-76
2022/03/06 02:45:47;;;;;;;41.65;17.73;;;;;;;-141.50;100.00;63355.56;4966512;28;20052;-76
2022/03/06 02:48:13;;;;;;;45.47;18.27;;;;;;;-141.50;100.00;63355.56;4952930;29;20051;-79
2022/03/06 02:50:42;;;;;;;35.55;17.83;;;;;;;-141.50;100.00;63355.56;4967602;28;20054;-77
2022/03/06 02:53:10;;;;;;;35.15;17.90;;;;;;;-141.50;100.00;63355.56;4952840;28;20408;-77
2022/03/06 02:55:38;;;;;;;38.35;18.38;;;;;;;-141.50;100.00;63355.56;4952308;28;20055;-77
2022/03/06 02:58:04;;;;;;;35.85;18.20;;;;;;;-141.50;100.00;63355.56;4953052;28;20062;-76
2022/03/06 03:00:31;;;;;;;36.08;18.77;;;;;;;-141.50;100.00;63355.56;4952560;28;20043;-77
2022/03/06 03:02:58;;;;;;;38.78;18.40;;;;;;;-141.50;100.00;63355.56;4953945;29;20415;-78
2022/03/06 03:05:26;;;;;;;38.17;18.88;;;;;;;-141.50;100.00;63355.56;4952378;28;20126;-76
2022/03/06 03:07:53;;;;;;;35.65;17.85;;;;;;;-141.50;100.00;63355.56;4951443;29;20057;-76
2022/03/06 03:10:22;;;;;;;36.00;17.80;;;;;;;-141.50;100.00;63355.56;4952159;29;20044;-77
2022/03/06 03:12:49;;;;;;;39.03;18.10;;;;;;;-141.50;100.00;63355.56;4953377;29;20142;-77
2022/03/06 03:15:17;;;;;;;34.25;17.02;;;;;;;-141.50;100.00;63355.56;4952964;28;20115;-77
2022/03/06 03:17:43;;;;;;;35.50;17.67;;;;;;;-141.50;100.00;63355.56;4952963;29;20078;-77
2022/03/06 03:20:11;;;;;;;41.55;19.25;;;;;;;-141.50;100.00;63355.56;4952798;29;20121;-77
2022/03/06 03:22:38;;;;;;;40.75;18.77;;;;;;;-141.50;100.00;63355.56;4953853;29;20496;-76
2022/03/06 03:25:05;;;;;;;38.80;17.92;;;;;;;-141.50;100.00;63355.56;4951049;29;20083;-77
2022/03/06 03:27:33;;;;;;;38.97;18.30;;;;;;;-141.50;100.00;63355.56;4952708;28;20555;-77
2022/03/06 03:29:59;;;;;;;34.20;17.48;;;;;;;-141.50;100.00;63355.56;4951063;29;20106;-76
2022/03/06 03:32:26;;;;;;;37.80;17.38;;;;;;;-141.50;100.00;63355.56;4952398;29;20118;-77
2022/03/06 03:34:53;;;;;;;39.85;18.50;;;;;;;-141.50;100.00;63355.56;4951903;29;20093;-76
2022/03/06 03:37:19;;;;;;;40.70;19.05;;;;;;;-141.50;100.00;63355.56;4951688;28;20051;-77
2022/03/06 03:39:46;;;;;;;37.17;18.85;;;;;;;-141.50;100.00;63355.56;4951558;29;20058;-76
2022/03/06 03:42:12;;;;;;;38.75;17.92;;;;;;;-141.50;100.00;63355.56;4953045;29;20047;-76
2022/03/06 03:44:39;;;;;;;36.75;18.45;;;;;;;-141.50;100.00;63355.56;4953078;29;20102;-76
2022/03/06 03:47:06;;;;;;;36.67;18.33;;;;;;;-141.50;100.00;63355.56;4952035;29;20079;-76
2022/03/06 03:49:32;;;;;;;34.95;17.83;;;;;;;-141.50;100.00;63355.56;4952631;29;20055;-76
2022/03/06 03:51:59;;;;;;;36.95;18.08;;;;;;;-141.50;100.00;63355.56;4951176;29;20078;-77
2022/03/06 03:54:25;;;;;;;34.63;17.27;;;;;;;-141.50;100.00;63355.56;4952291;29;20047;-76
2022/03/06 03:56:52;;;;;;;31.70;17.65;;;;;;;-141.50;100.00;63355.56;4952406;29;20653;-77
2022/03/06 03:59:18;;;;;;;37.47;19.13;;;;;;;-141.50;100.00;63355.56;4953065;28;20082;-77
2022/03/06 04:01:45;;;;;;;34.70;16.58;;;;;;;-141.50;100.00;63355.56;4952641;29;20151;-77
2022/03/06 04:04:12;;;;;;;39.22;17.55;;;;;;;-141.50;100.00;63355.56;4952726;29;20125;-75
2022/03/06 04:06:38;;;;;;;34.95;17.08;;;;;;;-141.50;100.00;63355.56;4951931;28;20705;-76
2022/03/06 04:09:05;;;;;;;37.40;16.92;;;;;;;-141.50;100.00;63355.56;4951992;29;20062;-77
2022/03/06 04:11:31;;;;;;;39.13;16.92;;;;;;;-141.50;100.00;63355.56;4990259;28;20588;-76
2022/03/06 04:13:58;;;;;;;32.60;17.40;;;;;;;-141.50;100.00;63355.56;4992487;28;20054;-77
2022/03/06 04:16:24;;;;;;;33.20;16.90;;;;;;;-141.50;100.00;63355.56;4992984;28;20100;-76
2022/03/06 04:18:51;;;;;;;31.52;15.57;;;;;;;-141.50;100.00;63355.56;4993541;28;20062;-77
2022/03/06 04:21:17;;;;;;;31.48;16.38;;;;;;;-141.50;100.00;63355.56;4992092;28;20043;-77
2022/03/06 04:23:45;;;;;;;31.13;15.65;;;;;;;-141.50;100.00;63355.56;4992169;28;20054;-77
2022/03/06 04:26:12;;;;;;;31.95;16.95;;;;;;;-141.50;100.00;63355.56;4992181;28;20050;-75
2022/03/06 04:28:38;;;;;;;33.67;17.02;;;;;;;-141.50;100.00;63355.56;4991047;28;20101;-75
2022/03/06 04:31:05;;;;;;;31.08;16.02;;;;;;;-141.50;100.00;63355.56;4990449;28;20517;-76
2022/03/06 04:33:32;;;;;;;31.90;17.08;;;;;;;-141.50;100.00;63355.56;4990468;28;20422;-76
2022/03/06 04:35:58;;;;;;;29.70;16.20;;;;;;;-141.50;100.00;63355.56;4989973;28;20097;-76
2022/03/06 04:38:25;;;;;;;33.30;16.70;;;;;;;-141.50;100.00;63355.56;4989172;28;20062;-78
2022/03/06 04:40:51;;;;;;;34.40;16.45;;;;;;;-141.50;100.00;63355.56;4989635;28;20064;-76
2022/03/06 04:43:18;;;;;;;33.42;15.90;;;;;;;-141.50;100.00;63355.56;4990883;28;20510;-76
2022/03/06 04:45:45;;;;;;;30.48;16.02;;;;;;;-141.50;100.00;63355.56;4989528;28;20090;-76
2022/03/06 04:48:11;;;;;;;31.67;16.35;;;;;;;-141.50;100.00;63355.56;4990244;28;20058;-76
2022/03/06 04:50:38;;;;;;;30.80;16.60;;;;;;;-141.50;100.00;63355.56;4989010;28;20050;-77
2022/03/06 04:53:04;;;;;;;34.38;15.85;;;;;;;-141.50;100.00;63355.56;4988638;28;20222;-76
2022/03/06 04:55:31;;;;;;;31.80;16.35;;;;;;;-141.50;100.00;63355.56;4989788;28;20050;-77
2022/03/06 04:57:57;;;;;;;30.60;16.23;;;;;;;-141.50;100.00;63355.56;4991948;28;20450;-76
2022/03/06 05:00:24;;;;;;;31.55;15.75;;;;;;;-141.50;100.00;63355.56;4992237;28;20493;-76
2022/03/06 05:02:51;;;;;;;65.40;23.75;;;;;;;-141.50;100.00;63355.56;4989989;28;20565;-77
2022/03/06 05:05:18;;;;;;;292.98;68.82;;;;;;;-141.50;100.00;63355.56;4988777;28;20421;-76
2022/03/06 05:07:44;;;;;;;102.65;29.90;;;;;;;-141.50;100.00;63355.56;4988763;28;20050;-77
2022/03/06 05:10:11;;;;;;;134.65;42.92;;;;;;;-141.50;100.00;63355.56;4989316;28;20043;-77
2022/03/06 05:12:38;;;;;;;48.38;20.42;;;;;;;-141.50;100.00;63355.56;4990310;28;20141;-77
2022/03/06 05:15:07;;;;;;;43.17;18.38;;;;;;;-141.50;100.00;63355.56;4989448;28;20395;-77
2022/03/06 05:17:36;;;;;;;36.38;16.83;;;;;;;-141.50;100.00;63355.56;4989504;28;20063;-77
2022/03/06 05:20:03;;;;;;;29.48;15.68;;;;;;;-141.50;100.00;63355.56;4993053;28;20166;-74
2022/03/06 05:22:29;;;;;;;32.40;15.85;;;;;;;-141.50;100.00;63355.56;4955964;28;20098;-76
2022/03/06 05:24:58;;;;;;;35.92;16.65;;;;;;;-141.50;100.00;63355.56;4963045;28;20050;-76
2022/03/06 05:27:25;;;;;;;31.90;16.63;;;;;;;-141.50;100.00;63355.56;4963262;28;20069;-77
2022/03/06 05:29:52;;;;;;;36.92;15.88;;;;;;;-141.50;100.00;63355.56;4961779;28;20102;-76
2022/03/06 05:32:18;;;;;;;34.33;16.88;;;;;;;-141.50;100.00;63355.56;4954451;28;20062;-76
2022/03/06 05:34:45;;;;;;;37.35;17.95;;;;;;;-141.50;100.00;63355.56;4953884;28;20047;-78
2022/03/06 05:37:12;;;;;;;35.67;17.23;;;;;;;-141.50;100.00;63355.56;4954265;28;20047;-76
2022/03/06 05:39:39;;;;;;;35.33;16.48;;;;;;;-141.50;100.00;63355.56;4953954;28;20062;-76
2022/03/06 05:42:06;;;;;;;34.72;16.80;;;;;;;-141.50;100.00;63355.56;4957154;28;20435;-76
2022/03/06 05:44:32;;;;;;;32.88;15.93;;;;;;;-141.50;100.00;63355.56;4965048;28;20055;-76
2022/03/06 05:46:59;;;;;;;32.75;16.27;;;;;;;-141.50;100.00;63355.56;4960473;28;20135;-77
2022/03/06 05:49:26;;;;;;;35.45;16.80;;;;;;;-141.50;100.00;63355.56;4955289;28;20057;-77
2022/03/06 05:51:52;;;;;;;29.02;15.50;;;;;;;-141.50;100.00;63355.56;4958188;28;20043;-77
2022/03/06 05:54:19;;;;;;;34.20;16.05;;;;;;;-141.50;100.00;63355.56;4960884;28;20102;-77
2022/03/06 05:56:45;;;;;;;30.05;14.30;;;;;;;-141.50;100.00;63355.56;4965608;28;20455;-77
2022/03/06 05:59:12;;;;;;;31.42;14.57;;;;;;;-141.50;100.00;63355.56;4956869;28;20098;-77
2022/03/06 06:01:38;;;;;;;27.70;15.20;;;;;;;-141.50;100.00;63355.56;4956258;28;20043;-75
2022/03/06 06:04:05;;;;;;;28.17;15.02;;;;;;;-141.50;100.00;63355.56;4955172;28;20062;-77
2022/03/06 06:06:32;;;;;;;31.77;15.93;;;;;;;-141.50;100.00;63355.56;4961244;28;20396;-78
2022/03/06 06:08:58;;;;;;;31.15;15.38;;;;;;;-141.50;100.00;63355.56;4980044;28;20039;-76
2022/03/06 06:11:25;;;;;;;30.52;15.02;;;;;;;-141.50;100.00;63355.56;4996196;28;20054;-77
2022/03/06 06:13:51;;;;;;;29.13;14.73;;;;;;;-141.50;100.00;63355.56;4996509;28;20038;-76
2022/03/06 06:16:18;;;;;;;28.95;14.50;;;;;;;-141.50;100.00;63355.56;4977705;28;20097;-78
2022/03/06 06:18:45;;;;;;;29.13;15.00;;;;;;;-141.50;100.00;63355.56;4974018;28;20065;-77
2022/03/06 06:21:11;;;;;;;31.42;14.07;;;;;;;-141.50;100.00;63355.56;4973995;28;20102;-77
2022/03/06 06:23:39;;;;;;;27.95;13.20;;;;;;;-141.50;100.00;63355.56;4973825;28;20105;-76
2022/03/06 06:26:06;;;;;;;29.38;13.60;;;;;;;-141.50;100.00;63355.56;4973619;28;20051;-77
2022/03/06 06:28:33;;;;;;;28.35;13.18;;;;;;;-141.50;100.00;63355.56;4973876;28;20062;-75
2022/03/06 06:31:00;;;;;;;25.05;12.25;;;;;;;-141.50;100.00;63355.56;4973047;28;20078;-79
2022/03/06 06:33:28;;;;;;;25.95;12.70;;;;;;;-141.50;100.00;63355.56;4972976;28;20050;-76
2022/03/06 06:35:54;;;;;;;28.95;12.23;;;;;;;-141.50;100.00;63355.56;4973420;28;20050;-78
2022/03/06 06:38:22;;;;;;;21.65;11.00;;;;;;;-141.50;100.00;63355.56;4972901;28;20051;-77
2022/03/06 06:40:50;;;;;;;23.20;11.38;;;;;;;-141.50;100.00;63355.56;4973616;28;20043;-76
2022/03/06 06:43:17;;;;;;;25.42;9.93;;;;;;;-141.50;100.00;63355.56;4974301;28;20105;-76
2022/03/06 06:45:44;;;;;;;18.65;9.38;;;;;;;-141.50;100.00;63355.56;4972157;28;20140;-77
2022/03/06 06:48:11;;;;;;;18.83;9.23;;;;;;;-141.50;100.00;63355.56;4972869;28;20419;-77
2022/03/06 06:50:37;;;;;;;23.55;10.48;;;;;;;-141.50;100.00;63355.56;4972449;28;20443;-76
2022/03/06 06:53:04;;;;;;;22.85;9.50;;;;;;;-141.50;100.00;63355.56;4973417;28;20054;-77
2022/03/06 06:55:35;;;;;;;22.38;9.23;;;;;;;-141.50;100.00;63355.56;4973472;28;20054;-77
2022/03/06 06:58:03;;;;;;;22.60;9.23;;;;;;;-141.50;100.00;63355.56;4959768;28;20051;-77
2022/03/06 07:00:30;;;;;;;22.42;9.70;;;;;;;-141.50;100.00;63355.56;4953594;28;20047;-77
2022/03/06 07:02:57;;;;;;;19.52;9.00;;;;;;;-141.50;100.00;63355.56;4954357;28;20082;-75
2022/03/06 07:05:24;;;;;;;18.38;8.75;;;;;;;-141.50;100.00;63355.56;4957035;28;20093;-76
2022/03/06 07:07:50;;;;;;;17.10;8.18;;;;;;;-141.50;100.00;63355.56;4968753;28;20175;-77
2022/03/06 07:10:17;;;;;;;16.38;8.07;;;;;;;-141.50;100.00;63355.56;4969808;28;20474;-76
2022/03/06 07:12:48;;;;;;;18.75;7.90;;;;;;;-141.50;100.00;63355.56;4969588;28;20466;-77
2022/03/06 07:15:15;;;;;;;16.15;7.93;;;;;;;-141.50;100.00;63355.56;4966360;28;20538;-78
2022/03/06 07:17:42;;;;;;;17.58;8.13;;;;;;;-141.50;100.00;63355.56;4968265;28;20102;-80
2022/03/06 07:20:09;;;;;;;19.73;7.80;;;;;;;-141.50;100.00;63355.56;4967065;28;20066;-75
2022/03/06 07:22:35;;;;;;;16.92;7.43;;;;;;;-141.50;100.00;63355.56;4968123;28;20396;-78
2022/03/06 07:25:03;;;;;;;13.88;6.90;;;;;;;-141.50;100.00;63355.56;4965590;28;20086;-77
2022/03/06 07:27:30;;;;;;;18.95;7.65;;;;;;;-141.50;100.00;63355.56;4967027;28;20050;-76
2022/03/06 07:29:57;;;;;;;13.52;7.25;;;;;;;-141.50;100.00;63355.56;4966876;28;20124;-76
2022/03/06 07:32:24;;;;;;;15.57;6.78;;;;;;;-141.50;100.00;63355.56;4970467;28;20294;-77
2022/03/06 07:34:50;;;;;;;14.80;6.75;;;;;;;-141.50;100.00;63355.56;4968609;28;20561;-76
2022/03/06 07:37:18;;;;;;;15.90;7.10;;;;;;;-141.50;100.00;63355.56;4964723;28;20086;-76
2022/03/06 07:39:44;;;;;;;15.90;6.50;;;;;;;-141.50;100.00;63355.56;4965995;28;20055;-75
2022/03/06 07:42:11;;;;;;;16.67;6.50;;;;;;;-141.50;100.00;63355.56;4966066;28;20066;-76
2022/03/06 07:44:38;;;;;;;12.45;6.30;;;;;;;-141.50;100.00;63355.56;4966979;28;20105;-77
2022/03/06 07:47:05;;;;;;;13.30;6.00;;;;;;;-141.50;100.00;63355.56;4970237;28;20484;-76
2022/03/06 07:49:31;;;;;;;18.27;6.68;;;;;;;-141.50;100.00;63355.56;4970048;28;20503;-76
2022/03/06 07:52:03;;;;;;;12.93;6.22;;;;;;;-141.50;100.00;63355.56;4970470;28;20047;-77
2022/03/06 07:54:29;;;;;;;11.63;5.80;;;;;;;-141.50;100.00;63355.56;4957133;28;20055;-78
2022/03/06 07:56:56;;;;;;;14.25;6.90;;;;;;;-141.50;100.00;63355.56;4951005;28;20051;-77
2022/03/06 07:59:25;;;;;;;13.52;5.70;;;;;;;-141.50;100.00;63355.56;4951795;28;20054;-77
2022/03/06 08:01:55;;;;;;;14.88;6.00;;;;;;;-141.50;100.00;63355.56;4950263;28;20150;-76
2022/03/06 08:04:22;;;;;;;11.48;5.43;;;;;;;-141.50;100.00;63355.56;4950721;28;20055;-76
2022/03/06 08:06:49;;;;;;;12.95;5.72;;;;;;;-141.50;100.00;63355.56;4949103;28;20516;-77
2022/03/06 08:09:16;;;;;;;13.45;6.30;;;;;;;-141.50;100.00;63355.56;4950379;28;20118;-77
2022/03/06 08:11:42;;;;;;;10.43;5.70;;;;;;;-141.50;100.00;63355.56;4954801;28;20055;-76
2022/03/06 08:14:09;;;;;;;15.32;6.35;;;;;;;-141.50;100.00;63355.56;4950491;29;20062;-76
2022/03/06 08:16:37;;;;;;;8.90;4.95;;;;;;;-141.50;100.00;63355.56;4962005;28;20434;-77
2022/03/06 08:19:05;;;;;;;11.63;5.28;;;;;;;-141.50;100.00;63355.56;4987458;28;20101;-77
2022/03/06 08:21:31;;;;;;;11.82;6.43;;;;;;;-141.50;100.00;63355.56;4988056;28;20050;-77
2022/03/06 08:23:58;;;;;;;13.80;5.65;;;;;;;-141.50;100.00;63355.56;4987350;28;20054;-75
2022/03/06 08:26:24;;;;;;;10.80;5.47;;;;;;;-141.50;100.00;63355.56;4989885;28;20050;-76
2022/03/06 08:28:51;;;;;;;14.00;5.90;;;;;;;-141.50;100.00;63355.56;4989162;28;20050;-77
2022/03/06 08:31:18;;;;;;;8.27;5.20;;;;;;;-141.50;100.00;63355.56;4989138;28;20042;-76
2022/03/06 08:33:45;;;;;;;9.10;5.32;;;;;;;-141.50;100.00;63355.56;4989848;28;20050;-76
2022/03/06 08:36:12;;;;;;;9.65;5.00;;;;;;;-141.50;100.00;63355.56;4988635;28;20085;-76
2022/03/06 08:38:39;;;;;;;12.43;5.22;;;;;;;-141.50;100.00;63355.56;4989174;28;20065;-76
2022/03/06 08:41:05;;;;;;;11.77;5.40;;;;;;;-141.50;100.00;63355.56;4989132;28;20050;-76
2022/03/06 08:43:32;;;;;;;11.95;5.30;;;;;;;-141.50;100.00;63355.56;4989582;28;20093;-77
2022/03/06 08:45:58;;;;;;;8.85;4.30;;;;;;;-141.50;100.00;63355.56;4988914;28;20134;-77
2022/03/06 08:48:25;;;;;;;11.27;5.28;;;;;;;-141.50;100.00;63355.56;4988560;28;20054;-77
2022/03/06 08:50:51;;;;;;;12.00;5.05;;;;;;;-141.50;100.00;63355.56;4988994;28;20124;-76
2022/03/06 08:53:20;;;;;;;10.27;4.55;;;;;;;-141.50;100.00;63355.56;4993432;28;20050;-77
2022/03/06 08:55:47;;;;;;;9.90;5.10;;;;;;;-141.50;100.00;63355.56;4993272;28;20112;-75
2022/03/06 08:58:13;;;;;;;9.85;5.30;;;;;;;-141.50;100.00;63355.56;4994411;28;20436;-76
2022/03/06 09:00:40;;;;;;;10.85;4.85;;;;;;;-141.50;100.00;63355.56;4992872;28;20104;-75
2022/03/06 09:03:07;;;;;;;11.65;5.10;;;;;;;-141.50;100.00;63355.56;4992985;28;20145;-75
2022/03/06 09:05:38;;;;;;;12.25;5.07;;;;;;;-141.50;100.00;63355.56;4992816;28;20417;-76
2022/03/06 09:08:05;;;;;;;9.88;4.10;;;;;;;-141.50;100.00;63355.56;4993013;28;20123;-76
2022/03/06 09:10:31;;;;;;;8.75;4.32;;;;;;;-141.50;100.00;63355.56;4992948;28;20116;-76
2022/03/06 09:13:00;;;;;;;8.85;4.72;;;;;;;-141.50;100.00;63355.56;4993572;28;20085;-77
2022/03/06 09:15:27;;;;;;;8.77;4.50;;;;;;;-141.50;100.00;63355.56;4992372;28;20054;-76
2022/03/06 09:17:54;;;;;;;7.97;4.55;;;;;;;-141.50;100.00;63355.56;4992392;28;20073;-76
2022/03/06 09:20:20;;;;;;;8.23;3.97;;;;;;;-141.50;100.00;63355.56;5008290;28;20104;-77
2022/03/06 09:22:47;;;;;;;9.23;4.05;;;;;;;-141.50;100.00;63355.56;4993250;28;20482;-75
2022/03/06 09:25:14;;;;;;;9.90;4.40;;;;;;;-141.50;100.00;63355.56;4992745;28;20075;-77
2022/03/06 09:27:41;;;;;;;10.70;4.63;;;;;;;-141.50;100.00;63355.56;4992470;28;20462;-76
2022/03/06 09:30:09;;;;;;;7.32;4.25;;;;;;;-141.50;100.00;63355.56;4992242;28;20089;-75
2022/03/06 09:32:36;;;;;;;10.77;4.38;;;;;;;-141.50;100.00;63355.56;4993287;28;20046;-76
2022/03/06 09:35:03;;;;;;;10.73;4.65;;;;;;;-141.50;100.00;63355.56;4991958;28;20178;-76
2022/03/06 09:37:30;;;;;;;11.95;4.25;;;;;;;-141.50;100.00;63355.56;4991893;28;20180;-76
2022/03/06 09:39:56;;;;;;;7.75;4.07;;;;;;;-141.50;100.00;63355.56;4992122;28;20486;-77
2022/03/06 09:42:23;;;;;;;8.88;4.30;;;;;;;-141.50;100.00;63355.56;5005807;28;20073;-77
2022/03/06 09:44:49;;;;;;;9.73;4.18;;;;;;;-141.50;100.00;63355.56;5010580;28;20109;-77
2022/03/06 09:47:16;;;;;;;7.03;4.10;;;;;;;-141.50;100.00;63355.56;5003666;28;20061;-77
2022/03/06 09:49:46;;;;;;;6.28;3.80;;;;;;;-141.50;100.00;63355.56;4991821;28;20445;-77
2022/03/06 09:52:13;;;;;;;9.20;4.65;;;;;;;-141.50;100.00;63355.56;4991430;28;20050;-77
2022/03/06 09:54:42;;;;;;;7.57;4.13;;;;;;;-141.50;100.00;63355.56;4991445;28;20054;-77
2022/03/06 09:57:08;;;;;;;8.43;4.20;;;;;;;-141.50;100.00;63355.56;4991714;28;20047;-77
2022/03/06 09:59:38;;;;;;;9.48;4.50;;;;;;;-141.50;100.00;63355.56;4992814;28;20058;-77
2022/03/06 10:02:05;;;;;;;8.88;4.43;;;;;;;-141.50;100.00;63355.56;4992462;28;20085;-77
2022/03/06 10:04:34;;;;;;;13.52;5.25;;;;;;;-141.50;100.00;63355.56;4993748;28;20172;-77
2022/03/06 10:07:05;;;;;;;9.32;4.40;;;;;;;-141.50;100.00;63355.56;4990983;28;20060;-77
2022/03/06 10:09:41;;;;;;;14.55;4.30;;;;;;;-141.50;100.00;63355.56;4991263;28;20054;-76
2022/03/06 10:12:31;;;;;;;10.65;4.50;;;;;;;-141.50;100.00;63355.56;4992008;28;20042;-77
2022/03/06 10:15:00;;;;;;;9.48;4.18;;;;;;;-141.50;100.00;63355.56;5007058;28;20414;-76
2022/03/06 10:17:28;;;;;;;8.68;4.10;;;;;;;-141.50;100.00;63355.56;4991839;28;20053;-76
2022/03/06 10:19:57;;;;;;;8.23;4.30;;;;;;;-141.50;100.00;63355.56;4992038;28;20077;-77
2022/03/06 10:22:28;;;;;;;10.25;4.05;;;;;;;-141.50;100.00;63355.56;4990984;28;20491;-77
2022/03/06 10:24:59;;;;;;;8.60;4.00;;;;;;;-141.50;100.00;63355.56;5005576;28;20046;-77
2022/03/06 10:27:44;;;;;;;8.20;3.90;;;;;;;-141.50;100.00;63355.56;4991408;28;20050;-78
2022/03/06 10:30:22;;;;;;;7.83;4.30;;;;;;;-141.50;100.00;63355.56;4991713;28;20042;-75
2022/03/06 10:32:50;;;;;;;6.90;3.90;;;;;;;-141.50;100.00;63355.56;4992852;28;20371;-76
2022/03/06 10:35:24;;;;;;;8.07;4.35;;;;;;;-141.50;100.00;63355.56;4991787;28;20146;-76
2022/03/06 10:37:52;;;;;;;12.18;4.68;;;;;;;-141.50;100.00;63355.56;5005669;28;20552;-76
2022/03/06 10:40:35;;;;;;;7.88;4.40;;;;;;;-141.50;100.00;63355.56;5005267;28;20113;-74
2022/03/06 10:43:15;;;;;;;8.68;4.30;;;;;;;-141.50;100.00;63355.56;5006059;28;20427;-76
2022/03/06 10:45:42;;;;;;;6.30;3.95;;;;;;;-141.50;100.00;63355.56;4989612;28;20053;-77
2022/03/06 10:48:10;;;;;;;7.93;4.15;;;;;;;-141.50;100.00;63355.56;4991187;28;20054;-76
2022/03/06 10:50:37;;;;;;;10.30;4.45;;;;;;;-141.50;100.00;63355.56;4991295;28;20050;-77
2022/03/06 10:53:17;;;;;;;7.53;4.30;;;;;;;-141.50;100.00;63355.56;4991412;28;20050;-76
2022/03/06 10:55:44;;;;;;;7.22;4.25;;;;;;;-141.50;100.00;63355.56;4991232;28;20046;-76
2022/03/06 10:58:12;;;;;;;10.75;4.47;;;;;;;-141.50;100.00;63355.56;4990868;28;20051;-76